sensor_id;sensor_type;location;lat;lon;timestamp;P1;durP1;ratioP1;P2;durP2;ratioP2
74892;SDS011;63446;56.272;43.922;2023-02-13T00:00:40;3.53;;;0.50;;
74892;SDS011;63446;56.272;43.922;2023-02-13T00:03:05;5.53;;;1.03;;
74892;SDS011;63446;56.272;43.922;2023-02-13T00:05:31;3.33;;;0.77;;
74892;SDS011;63446;56.272;43.922;2023-02-13T00:07:57;4.88;;;0.93;;
74892;SDS011;63446;56.272;43.922;2023-02-13T00:10:23;3.97;;;1.10;;
74892;SDS011;63446;56.272;43.922;2023-02-13T00:12:49;3.88;;;0.75;;
74892;SDS011;63446;56.272;43.922;2023-02-13T00:15:15;3.50;;;0.80;;
74892;SDS011;63446;56.272;43.922;2023-02-13T00:17:40;5.72;;;0.77;;
74892;SDS011;63446;56.272;43.922;2023-02-13T00:20:07;6.50;;;0.70;;
74892;SDS011;63446;56.272;43.922;2023-02-13T00:22:35;4.45;;;1.00;;
74892;SDS011;63446;56.272;43.922;2023-02-13T00:25:02;3.70;;;0.93;;
74892;SDS011;63446;56.272;43.922;2023-02-13T00:27:29;6.63;;;1.20;;
74892;SDS011;63446;56.272;43.922;2023-02-13T00:29:55;5.40;;;1.00;;
74892;SDS011;63446;56.272;43.922;2023-02-13T00:32:20;5.55;;;0.93;;
74892;SDS011;63446;56.272;43.922;2023-02-13T00:34:46;5.07;;;1.00;;
74892;SDS011;63446;56.272;43.922;2023-02-13T00:37:13;5.60;;;1.10;;
74892;SDS011;63446;56.272;43.922;2023-02-13T00:39:38;6.18;;;1.10;;
74892;SDS011;63446;56.272;43.922;2023-02-13T00:42:04;5.60;;;1.13;;
74892;SDS011;63446;56.272;43.922;2023-02-13T00:44:31;5.60;;;1.02;;
74892;SDS011;63446;56.272;43.922;2023-02-13T00:46:57;5.40;;;1.48;;
74892;SDS011;63446;56.272;43.922;2023-02-13T00:49:23;6.80;;;1.10;;
74892;SDS011;63446;56.272;43.922;2023-02-13T00:51:48;5.93;;;1.30;;
74892;SDS011;63446;56.272;43.922;2023-02-13T00:54:14;5.93;;;1.20;;
74892;SDS011;63446;56.272;43.922;2023-02-13T00:56:42;4.85;;;1.30;;
74892;SDS011;63446;56.272;43.922;2023-02-13T00:59:08;4.83;;;1.03;;
74892;SDS011;63446;56.272;43.922;2023-02-13T01:01:34;3.97;;;1.05;;
74892;SDS011;63446;56.272;43.922;2023-02-13T01:03:59;4.97;;;1.15;;
74892;SDS011;63446;56.272;43.922;2023-02-13T01:06:26;5.63;;;0.88;;
74892;SDS011;63446;56.272;43.922;2023-02-13T01:08:52;6.33;;;1.07;;
74892;SDS011;63446;56.272;43.922;2023-02-13T01:11:18;4.70;;;1.10;;
74892;SDS011;63446;56.272;43.922;2023-02-13T01:13:45;5.97;;;1.27;;
74892;SDS011;63446;56.272;43.922;2023-02-13T01:16:10;5.97;;;1.13;;
74892;SDS011;63446;56.272;43.922;2023-02-13T01:18:37;4.90;;;1.40;;
74892;SDS011;63446;56.272;43.922;2023-02-13T01:21:07;4.07;;;1.10;;
74892;SDS011;63446;56.272;43.922;2023-02-13T01:23:40;6.55;;;1.75;;
74892;SDS011;63446;56.272;43.922;2023-02-13T01:26:07;5.57;;;0.97;;
74892;SDS011;63446;56.272;43.922;2023-02-13T01:28:35;6.45;;;1.60;;
74892;SDS011;63446;56.272;43.922;2023-02-13T01:31:01;5.63;;;1.00;;
74892;SDS011;63446;56.272;43.922;2023-02-13T01:33:27;3.87;;;1.27;;
74892;SDS011;63446;56.272;43.922;2023-02-13T01:35:54;5.40;;;1.38;;
74892;SDS011;63446;56.272;43.922;2023-02-13T01:38:20;5.40;;;1.33;;
74892;SDS011;63446;56.272;43.922;2023-02-13T01:40:50;5.80;;;1.43;;
74892;SDS011;63446;56.272;43.922;2023-02-13T01:43:18;5.93;;;1.40;;
74892;SDS011;63446;56.272;43.922;2023-02-13T01:45:47;9.23;;;1.60;;
74892;SDS011;63446;56.272;43.922;2023-02-13T01:48:20;8.20;;;1.77;;
74892;SDS011;63446;56.272;43.922;2023-02-13T01:51:00;5.60;;;1.40;;
74892;SDS011;63446;56.272;43.922;2023-02-13T01:53:34;6.72;;;1.70;;
74892;SDS011;63446;56.272;43.922;2023-02-13T01:58:37;4.72;;;1.30;;
74892;SDS011;63446;56.272;43.922;2023-02-13T02:01:06;4.72;;;1.30;;
74892;SDS011;63446;56.272;43.922;2023-02-13T02:03:37;5.07;;;1.10;;
74892;SDS011;63446;56.272;43.922;2023-02-13T02:06:11;4.15;;;1.30;;
74892;SDS011;63446;56.272;43.922;2023-02-13T02:08:42;4.90;;;1.10;;
74892;SDS011;63446;56.272;43.922;2023-02-13T02:11:18;6.13;;;1.52;;
74892;SDS011;63446;56.272;43.922;2023-02-13T02:13:55;6.53;;;1.58;;
74892;SDS011;63446;56.272;43.922;2023-02-13T02:16:50;9.83;;;1.50;;
74892;SDS011;63446;56.272;43.922;2023-02-13T02:31:03;6.13;;;1.03;;
74892;SDS011;63446;56.272;43.922;2023-02-13T02:39:02;5.57;;;1.10;;
74892;SDS011;63446;56.272;43.922;2023-02-13T02:50:38;4.40;;;1.58;;
74892;SDS011;63446;56.272;43.922;2023-02-13T02:53:22;3.67;;;0.90;;
74892;SDS011;63446;56.272;43.922;2023-02-13T02:58:54;4.53;;;1.30;;
74892;SDS011;63446;56.272;43.922;2023-02-13T03:01:44;6.68;;;1.30;;
74892;SDS011;63446;56.272;43.922;2023-02-13T03:04:41;4.47;;;1.25;;
74892;SDS011;63446;56.272;43.922;2023-02-13T03:07:29;4.75;;;1.27;;
74892;SDS011;63446;56.272;43.922;2023-02-13T03:09:58;6.15;;;1.25;;
74892;SDS011;63446;56.272;43.922;2023-02-13T03:15:52;3.53;;;0.95;;
74892;SDS011;63446;56.272;43.922;2023-02-13T03:18:42;5.13;;;1.25;;
74892;SDS011;63446;56.272;43.922;2023-02-13T03:21:37;5.65;;;1.70;;
74892;SDS011;63446;56.272;43.922;2023-02-13T03:24:26;5.47;;;1.48;;
74892;SDS011;63446;56.272;43.922;2023-02-13T03:27:04;5.40;;;1.27;;
74892;SDS011;63446;56.272;43.922;2023-02-13T03:29:42;5.70;;;1.00;;
74892;SDS011;63446;56.272;43.922;2023-02-13T03:32:38;5.47;;;1.10;;
74892;SDS011;63446;56.272;43.922;2023-02-13T03:38:22;4.72;;;1.00;;
74892;SDS011;63446;56.272;43.922;2023-02-13T03:40:56;6.67;;;1.20;;
74892;SDS011;63446;56.272;43.922;2023-02-13T03:46:37;4.80;;;1.23;;
74892;SDS011;63446;56.272;43.922;2023-02-13T03:49:06;7.13;;;1.35;;
74892;SDS011;63446;56.272;43.922;2023-02-13T03:51:55;3.58;;;1.13;;
74892;SDS011;63446;56.272;43.922;2023-02-13T03:54:30;7.10;;;1.73;;
74892;SDS011;63446;56.272;43.922;2023-02-13T03:57:21;6.45;;;1.30;;
74892;SDS011;63446;56.272;43.922;2023-02-13T04:00:09;3.97;;;1.10;;
74892;SDS011;63446;56.272;43.922;2023-02-13T04:03:03;6.18;;;1.45;;
74892;SDS011;63446;56.272;43.922;2023-02-13T04:05:39;5.65;;;1.70;;
74892;SDS011;63446;56.272;43.922;2023-02-13T04:08:09;7.97;;;1.77;;
74892;SDS011;63446;56.272;43.922;2023-02-13T04:10:38;7.32;;;1.98;;
74892;SDS011;63446;56.272;43.922;2023-02-13T04:13:29;8.55;;;2.10;;
74892;SDS011;63446;56.272;43.922;2023-02-13T04:16:09;8.88;;;1.90;;
74892;SDS011;63446;56.272;43.922;2023-02-13T04:18:42;8.57;;;2.10;;
74892;SDS011;63446;56.272;43.922;2023-02-13T04:21:09;7.00;;;1.73;;
74892;SDS011;63446;56.272;43.922;2023-02-13T04:23:35;8.63;;;2.50;;
74892;SDS011;63446;56.272;43.922;2023-02-13T04:26:01;6.88;;;2.30;;
74892;SDS011;63446;56.272;43.922;2023-02-13T04:28:30;7.93;;;2.50;;
74892;SDS011;63446;56.272;43.922;2023-02-13T04:30:56;10.82;;;3.22;;
74892;SDS011;63446;56.272;43.922;2023-02-13T04:33:22;9.65;;;3.47;;
74892;SDS011;63446;56.272;43.922;2023-02-13T04:35:48;10.23;;;3.50;;
74892;SDS011;63446;56.272;43.922;2023-02-13T04:38:14;14.65;;;4.00;;
74892;SDS011;63446;56.272;43.922;2023-02-13T04:40:40;12.23;;;3.72;;
74892;SDS011;63446;56.272;43.922;2023-02-13T04:43:06;11.57;;;4.03;;
74892;SDS011;63446;56.272;43.922;2023-02-13T04:45:32;11.60;;;3.40;;
74892;SDS011;63446;56.272;43.922;2023-02-13T04:47:58;15.60;;;3.60;;
74892;SDS011;63446;56.272;43.922;2023-02-13T04:50:24;12.20;;;3.80;;
74892;SDS011;63446;56.272;43.922;2023-02-13T04:52:54;12.73;;;4.07;;
74892;SDS011;63446;56.272;43.922;2023-02-13T04:55:21;12.18;;;4.03;;
74892;SDS011;63446;56.272;43.922;2023-02-13T04:57:47;11.57;;;4.13;;
74892;SDS011;63446;56.272;43.922;2023-02-13T05:00:13;12.27;;;4.18;;
74892;SDS011;63446;56.272;43.922;2023-02-13T05:02:39;14.80;;;4.53;;
74892;SDS011;63446;56.272;43.922;2023-02-13T05:05:05;12.33;;;4.70;;
74892;SDS011;63446;56.272;43.922;2023-02-13T05:07:31;12.27;;;4.90;;
74892;SDS011;63446;56.272;43.922;2023-02-13T05:09:57;14.27;;;4.22;;
74892;SDS011;63446;56.272;43.922;2023-02-13T05:12:23;14.57;;;4.77;;
74892;SDS011;63446;56.272;43.922;2023-02-13T05:14:49;12.02;;;4.30;;
74892;SDS011;63446;56.272;43.922;2023-02-13T05:17:15;13.93;;;3.93;;
74892;SDS011;63446;56.272;43.922;2023-02-13T05:19:41;17.25;;;4.18;;
74892;SDS011;63446;56.272;43.922;2023-02-13T05:22:09;19.08;;;4.53;;
74892;SDS011;63446;56.272;43.922;2023-02-13T05:25:06;16.55;;;4.30;;
74892;SDS011;63446;56.272;43.922;2023-02-13T05:27:33;12.83;;;4.23;;
74892;SDS011;63446;56.272;43.922;2023-02-13T05:29:59;15.15;;;4.13;;
74892;SDS011;63446;56.272;43.922;2023-02-13T05:32:25;12.75;;;4.75;;
74892;SDS011;63446;56.272;43.922;2023-02-13T05:34:51;19.63;;;4.75;;
74892;SDS011;63446;56.272;43.922;2023-02-13T05:37:17;11.40;;;4.67;;
74892;SDS011;63446;56.272;43.922;2023-02-13T05:39:43;14.95;;;4.55;;
74892;SDS011;63446;56.272;43.922;2023-02-13T05:42:09;15.40;;;4.88;;
74892;SDS011;63446;56.272;43.922;2023-02-13T05:44:36;12.93;;;4.50;;
74892;SDS011;63446;56.272;43.922;2023-02-13T05:47:02;15.02;;;5.68;;
74892;SDS011;63446;56.272;43.922;2023-02-13T05:49:28;13.97;;;5.03;;
74892;SDS011;63446;56.272;43.922;2023-02-13T05:51:53;15.15;;;5.18;;
74892;SDS011;63446;56.272;43.922;2023-02-13T05:54:19;11.57;;;4.77;;
74892;SDS011;63446;56.272;43.922;2023-02-13T05:56:45;12.60;;;5.15;;
74892;SDS011;63446;56.272;43.922;2023-02-13T05:59:11;16.75;;;5.25;;
74892;SDS011;63446;56.272;43.922;2023-02-13T06:01:37;15.60;;;5.65;;
74892;SDS011;63446;56.272;43.922;2023-02-13T06:04:03;16.13;;;5.72;;
74892;SDS011;63446;56.272;43.922;2023-02-13T06:06:29;16.48;;;5.85;;
74892;SDS011;63446;56.272;43.922;2023-02-13T06:08:55;13.07;;;4.70;;
74892;SDS011;63446;56.272;43.922;2023-02-13T06:11:21;12.38;;;4.45;;
74892;SDS011;63446;56.272;43.922;2023-02-13T06:13:49;11.77;;;4.07;;
74892;SDS011;63446;56.272;43.922;2023-02-13T06:16:14;10.55;;;4.00;;
74892;SDS011;63446;56.272;43.922;2023-02-13T06:18:40;12.00;;;4.10;;
74892;SDS011;63446;56.272;43.922;2023-02-13T06:21:06;9.57;;;3.97;;
74892;SDS011;63446;56.272;43.922;2023-02-13T06:23:32;11.50;;;4.07;;
74892;SDS011;63446;56.272;43.922;2023-02-13T06:26:05;12.55;;;4.20;;
74892;SDS011;63446;56.272;43.922;2023-02-13T06:28:32;10.63;;;3.92;;
74892;SDS011;63446;56.272;43.922;2023-02-13T06:30:58;10.00;;;3.75;;
74892;SDS011;63446;56.272;43.922;2023-02-13T06:33:24;9.17;;;3.20;;
74892;SDS011;63446;56.272;43.922;2023-02-13T06:35:50;13.05;;;3.80;;
74892;SDS011;63446;56.272;43.922;2023-02-13T06:38:16;11.88;;;3.88;;
74892;SDS011;63446;56.272;43.922;2023-02-13T06:40:46;12.43;;;3.78;;
74892;SDS011;63446;56.272;43.922;2023-02-13T06:43:14;16.25;;;4.63;;
74892;SDS011;63446;56.272;43.922;2023-02-13T06:45:40;24.05;;;8.63;;
74892;SDS011;63446;56.272;43.922;2023-02-13T06:48:06;51.17;;;21.27;;
74892;SDS011;63446;56.272;43.922;2023-02-13T06:50:32;29.60;;;12.60;;
74892;SDS011;63446;56.272;43.922;2023-02-13T06:52:59;15.15;;;6.32;;
74892;SDS011;63446;56.272;43.922;2023-02-13T06:55:25;13.55;;;4.95;;
74892;SDS011;63446;56.272;43.922;2023-02-13T06:57:51;8.33;;;3.47;;
74892;SDS011;63446;56.272;43.922;2023-02-13T07:00:18;10.25;;;3.33;;
74892;SDS011;63446;56.272;43.922;2023-02-13T07:02:44;11.55;;;4.07;;
74892;SDS011;63446;56.272;43.922;2023-02-13T07:05:12;10.25;;;4.00;;
74892;SDS011;63446;56.272;43.922;2023-02-13T07:07:39;12.33;;;3.83;;
74892;SDS011;63446;56.272;43.922;2023-02-13T07:10:06;12.82;;;3.75;;
74892;SDS011;63446;56.272;43.922;2023-02-13T07:12:35;10.98;;;3.70;;
74892;SDS011;63446;56.272;43.922;2023-02-13T07:15:04;10.40;;;3.50;;
74892;SDS011;63446;56.272;43.922;2023-02-13T07:17:30;11.35;;;3.90;;
74892;SDS011;63446;56.272;43.922;2023-02-13T07:19:58;10.73;;;3.63;;
74892;SDS011;63446;56.272;43.922;2023-02-13T07:22:24;10.50;;;3.90;;
74892;SDS011;63446;56.272;43.922;2023-02-13T07:24:50;10.43;;;4.18;;
74892;SDS011;63446;56.272;43.922;2023-02-13T07:27:16;13.00;;;4.30;;
74892;SDS011;63446;56.272;43.922;2023-02-13T07:29:42;11.18;;;4.57;;
74892;SDS011;63446;56.272;43.922;2023-02-13T07:32:08;20.97;;;6.70;;
74892;SDS011;63446;56.272;43.922;2023-02-13T07:34:34;17.27;;;6.68;;
74892;SDS011;63446;56.272;43.922;2023-02-13T07:37:00;18.10;;;6.20;;
74892;SDS011;63446;56.272;43.922;2023-02-13T07:39:26;30.65;;;10.23;;
74892;SDS011;63446;56.272;43.922;2023-02-13T07:41:53;29.33;;;10.80;;
74892;SDS011;63446;56.272;43.922;2023-02-13T07:44:24;18.93;;;7.17;;
74892;SDS011;63446;56.272;43.922;2023-02-13T07:46:49;16.73;;;5.95;;
74892;SDS011;63446;56.272;43.922;2023-02-13T07:49:15;11.90;;;4.10;;
74892;SDS011;63446;56.272;43.922;2023-02-13T07:51:41;15.23;;;4.50;;
74892;SDS011;63446;56.272;43.922;2023-02-13T07:54:08;12.60;;;4.83;;
74892;SDS011;63446;56.272;43.922;2023-02-13T07:56:39;13.95;;;4.18;;
74892;SDS011;63446;56.272;43.922;2023-02-13T07:59:04;11.95;;;3.97;;
74892;SDS011;63446;56.272;43.922;2023-02-13T08:01:31;11.07;;;4.00;;
74892;SDS011;63446;56.272;43.922;2023-02-13T08:03:57;10.52;;;3.40;;
74892;SDS011;63446;56.272;43.922;2023-02-13T08:06:22;12.93;;;3.78;;
74892;SDS011;63446;56.272;43.922;2023-02-13T08:08:49;8.07;;;3.40;;
74892;SDS011;63446;56.272;43.922;2023-02-13T08:11:35;10.48;;;4.03;;
74892;SDS011;63446;56.272;43.922;2023-02-13T08:14:23;10.63;;;3.60;;
74892;SDS011;63446;56.272;43.922;2023-02-13T08:16:51;14.27;;;4.85;;
74892;SDS011;63446;56.272;43.922;2023-02-13T08:19:19;15.85;;;5.85;;
74892;SDS011;63446;56.272;43.922;2023-02-13T08:21:45;14.97;;;5.53;;
74892;SDS011;63446;56.272;43.922;2023-02-13T08:24:12;22.23;;;7.95;;
74892;SDS011;63446;56.272;43.922;2023-02-13T08:26:38;18.20;;;6.75;;
74892;SDS011;63446;56.272;43.922;2023-02-13T08:29:05;24.55;;;8.85;;
74892;SDS011;63446;56.272;43.922;2023-02-13T08:31:32;20.13;;;6.78;;
74892;SDS011;63446;56.272;43.922;2023-02-13T08:33:58;19.00;;;8.17;;
74892;SDS011;63446;56.272;43.922;2023-02-13T08:36:25;18.70;;;6.68;;
74892;SDS011;63446;56.272;43.922;2023-02-13T08:38:51;20.17;;;6.90;;
74892;SDS011;63446;56.272;43.922;2023-02-13T08:41:16;13.73;;;5.67;;
74892;SDS011;63446;56.272;43.922;2023-02-13T08:43:43;16.02;;;5.10;;
74892;SDS011;63446;56.272;43.922;2023-02-13T08:46:10;12.15;;;4.68;;
74892;SDS011;63446;56.272;43.922;2023-02-13T08:48:38;13.82;;;4.97;;
74892;SDS011;63446;56.272;43.922;2023-02-13T08:51:07;12.47;;;5.07;;
74892;SDS011;63446;56.272;43.922;2023-02-13T08:53:34;15.80;;;4.78;;
74892;SDS011;63446;56.272;43.922;2023-02-13T08:56:02;11.82;;;5.13;;
74892;SDS011;63446;56.272;43.922;2023-02-13T08:58:29;21.30;;;9.40;;
74892;SDS011;63446;56.272;43.922;2023-02-13T09:00:55;18.05;;;7.72;;
74892;SDS011;63446;56.272;43.922;2023-02-13T09:03:21;18.58;;;8.35;;
74892;SDS011;63446;56.272;43.922;2023-02-13T09:05:46;20.00;;;9.07;;
74892;SDS011;63446;56.272;43.922;2023-02-13T09:08:12;18.05;;;7.40;;
74892;SDS011;63446;56.272;43.922;2023-02-13T09:10:39;14.60;;;6.50;;
74892;SDS011;63446;56.272;43.922;2023-02-13T09:13:06;13.68;;;5.22;;
74892;SDS011;63446;56.272;43.922;2023-02-13T09:15:32;14.65;;;5.05;;
74892;SDS011;63446;56.272;43.922;2023-02-13T09:17:58;17.67;;;5.97;;
74892;SDS011;63446;56.272;43.922;2023-02-13T09:20:23;17.10;;;6.55;;
74892;SDS011;63446;56.272;43.922;2023-02-13T09:22:49;17.13;;;6.85;;
74892;SDS011;63446;56.272;43.922;2023-02-13T09:25:15;16.67;;;6.30;;
74892;SDS011;63446;56.272;43.922;2023-02-13T09:27:42;20.80;;;6.78;;
74892;SDS011;63446;56.272;43.922;2023-02-13T09:30:08;20.13;;;7.37;;
74892;SDS011;63446;56.272;43.922;2023-02-13T09:32:35;16.05;;;6.97;;
74892;SDS011;63446;56.272;43.922;2023-02-13T09:35:02;18.25;;;6.05;;
74892;SDS011;63446;56.272;43.922;2023-02-13T09:37:29;17.60;;;6.93;;
74892;SDS011;63446;56.272;43.922;2023-02-13T09:39:55;14.87;;;6.70;;
74892;SDS011;63446;56.272;43.922;2023-02-13T09:42:25;19.40;;;7.22;;
74892;SDS011;63446;56.272;43.922;2023-02-13T09:44:59;15.90;;;6.30;;
74892;SDS011;63446;56.272;43.922;2023-02-13T09:47:30;14.13;;;5.10;;
74892;SDS011;63446;56.272;43.922;2023-02-13T09:52:44;11.80;;;3.85;;
74892;SDS011;63446;56.272;43.922;2023-02-13T09:55:15;11.63;;;3.92;;
74892;SDS011;63446;56.272;43.922;2023-02-13T10:00:53;13.00;;;4.00;;
74892;SDS011;63446;56.272;43.922;2023-02-13T10:03:31;14.57;;;4.03;;
74892;SDS011;63446;56.272;43.922;2023-02-13T10:06:19;11.05;;;3.80;;
74892;SDS011;63446;56.272;43.922;2023-02-13T10:11:49;11.07;;;3.53;;
74892;SDS011;63446;56.272;43.922;2023-02-13T10:17:22;10.30;;;3.13;;
74892;SDS011;63446;56.272;43.922;2023-02-13T10:19:54;10.10;;;4.50;;
74892;SDS011;63446;56.272;43.922;2023-02-13T10:22:28;8.70;;;2.70;;
74892;SDS011;63446;56.272;43.922;2023-02-13T10:25:02;7.93;;;2.88;;
74892;SDS011;63446;56.272;43.922;2023-02-13T10:28:03;10.47;;;3.43;;
74892;SDS011;63446;56.272;43.922;2023-02-13T10:30:45;9.77;;;3.00;;
74892;SDS011;63446;56.272;43.922;2023-02-13T10:33:21;11.43;;;4.82;;
74892;SDS011;63446;56.272;43.922;2023-02-13T10:38:26;16.02;;;7.32;;
74892;SDS011;63446;56.272;43.922;2023-02-13T10:43:46;7.50;;;3.20;;
74892;SDS011;63446;56.272;43.922;2023-02-13T10:46:24;9.10;;;3.50;;
74892;SDS011;63446;56.272;43.922;2023-02-13T10:49:00;13.55;;;4.32;;
74892;SDS011;63446;56.272;43.922;2023-02-13T10:51:44;10.02;;;4.20;;
74892;SDS011;63446;56.272;43.922;2023-02-13T10:57:27;9.80;;;3.38;;
74892;SDS011;63446;56.272;43.922;2023-02-13T11:02:42;10.60;;;2.97;;
74892;SDS011;63446;56.272;43.922;2023-02-13T11:05:13;7.60;;;2.88;;
74892;SDS011;63446;56.272;43.922;2023-02-13T11:07:43;11.33;;;3.40;;
74892;SDS011;63446;56.272;43.922;2023-02-13T11:10:21;8.65;;;3.42;;
74892;SDS011;63446;56.272;43.922;2023-02-13T11:12:49;13.30;;;3.95;;
74892;SDS011;63446;56.272;43.922;2023-02-13T11:17:50;13.38;;;3.10;;
74892;SDS011;63446;56.272;43.922;2023-02-13T11:20:25;9.03;;;2.40;;
74892;SDS011;63446;56.272;43.922;2023-02-13T11:22:52;8.15;;;3.10;;
74892;SDS011;63446;56.272;43.922;2023-02-13T11:25:24;15.02;;;4.93;;
74892;SDS011;63446;56.272;43.922;2023-02-13T11:28:03;21.30;;;6.07;;
74892;SDS011;63446;56.272;43.922;2023-02-13T11:30:40;20.60;;;5.82;;
74892;SDS011;63446;56.272;43.922;2023-02-13T11:35:43;12.25;;;3.63;;
74892;SDS011;63446;56.272;43.922;2023-02-13T11:40:46;11.50;;;3.88;;
74892;SDS011;63446;56.272;43.922;2023-02-13T11:43:21;13.57;;;4.78;;
74892;SDS011;63446;56.272;43.922;2023-02-13T11:46:00;14.73;;;5.60;;
74892;SDS011;63446;56.272;43.922;2023-02-13T11:48:28;15.00;;;4.00;;
74892;SDS011;63446;56.272;43.922;2023-02-13T11:50:55;10.63;;;3.35;;
74892;SDS011;63446;56.272;43.922;2023-02-13T11:53:22;8.23;;;2.58;;
74892;SDS011;63446;56.272;43.922;2023-02-13T11:58:46;6.93;;;2.20;;
74892;SDS011;63446;56.272;43.922;2023-02-13T12:01:26;13.77;;;4.00;;
74892;SDS011;63446;56.272;43.922;2023-02-13T12:06:40;9.88;;;2.90;;
74892;SDS011;63446;56.272;43.922;2023-02-13T12:09:23;9.50;;;3.15;;
74892;SDS011;63446;56.272;43.922;2023-02-13T12:11:52;12.03;;;2.67;;
74892;SDS011;63446;56.272;43.922;2023-02-13T12:14:30;6.97;;;2.55;;
74892;SDS011;63446;56.272;43.922;2023-02-13T12:17:07;8.75;;;2.35;;
74892;SDS011;63446;56.272;43.922;2023-02-13T12:30:53;12.63;;;3.47;;
74892;SDS011;63446;56.272;43.922;2023-02-13T12:39:29;9.63;;;3.50;;
74892;SDS011;63446;56.272;43.922;2023-02-13T12:50:42;12.25;;;4.90;;
74892;SDS011;63446;56.272;43.922;2023-02-13T12:53:46;10.87;;;4.83;;
74892;SDS011;63446;56.272;43.922;2023-02-13T13:06:57;10.63;;;3.40;;
74892;SDS011;63446;56.272;43.922;2023-02-13T13:12:25;14.52;;;7.03;;
74892;SDS011;63446;56.272;43.922;2023-02-13T13:29:00;38.65;;;14.80;;
74892;SDS011;63446;56.272;43.922;2023-02-13T13:31:30;41.85;;;15.98;;
74892;SDS011;63446;56.272;43.922;2023-02-13T13:34:00;38.73;;;15.90;;
74892;SDS011;63446;56.272;43.922;2023-02-13T13:36:42;36.38;;;13.80;;
74892;SDS011;63446;56.272;43.922;2023-02-13T13:42:16;15.02;;;4.82;;
74892;SDS011;63446;56.272;43.922;2023-02-13T13:50:26;10.48;;;3.85;;
74892;SDS011;63446;56.272;43.922;2023-02-13T13:53:15;10.73;;;3.83;;
74892;SDS011;63446;56.272;43.922;2023-02-13T13:58:22;11.17;;;2.67;;
74892;SDS011;63446;56.272;43.922;2023-02-13T14:01:20;8.43;;;2.58;;
74892;SDS011;63446;56.272;43.922;2023-02-13T14:03:59;7.55;;;2.70;;
74892;SDS011;63446;56.272;43.922;2023-02-13T14:14:53;8.27;;;2.22;;
74892;SDS011;63446;56.272;43.922;2023-02-13T14:20:27;6.47;;;1.73;;
74892;SDS011;63446;56.272;43.922;2023-02-13T14:23:13;7.70;;;1.77;;
74892;SDS011;63446;56.272;43.922;2023-02-13T14:31:20;6.55;;;2.33;;
74892;SDS011;63446;56.272;43.922;2023-02-13T14:36:35;14.30;;;3.17;;
74892;SDS011;63446;56.272;43.922;2023-02-13T14:42:02;18.75;;;5.88;;
74892;SDS011;63446;56.272;43.922;2023-02-13T14:44:46;9.98;;;2.60;;
74892;SDS011;63446;56.272;43.922;2023-02-13T14:49:44;8.43;;;2.95;;
74892;SDS011;63446;56.272;43.922;2023-02-13T14:52:16;10.37;;;2.40;;
74892;SDS011;63446;56.272;43.922;2023-02-13T14:54:58;10.25;;;2.80;;
74892;SDS011;63446;56.272;43.922;2023-02-13T14:57:36;8.85;;;2.40;;
74892;SDS011;63446;56.272;43.922;2023-02-13T15:03:02;8.00;;;2.67;;
74892;SDS011;63446;56.272;43.922;2023-02-13T15:05:36;9.23;;;2.50;;
74892;SDS011;63446;56.272;43.922;2023-02-13T15:08:15;7.47;;;2.33;;
74892;SDS011;63446;56.272;43.922;2023-02-13T15:10:46;6.88;;;2.30;;
74892;SDS011;63446;56.272;43.922;2023-02-13T15:13:22;5.97;;;1.83;;
74892;SDS011;63446;56.272;43.922;2023-02-13T15:15:51;8.60;;;2.05;;
74892;SDS011;63446;56.272;43.922;2023-02-13T15:18:32;8.00;;;2.47;;
74892;SDS011;63446;56.272;43.922;2023-02-13T15:21:07;7.93;;;2.58;;
74892;SDS011;63446;56.272;43.922;2023-02-13T15:23:39;7.05;;;2.20;;
74892;SDS011;63446;56.272;43.922;2023-02-13T15:26:06;6.05;;;2.22;;
74892;SDS011;63446;56.272;43.922;2023-02-13T15:28:33;6.97;;;2.03;;
74892;SDS011;63446;56.272;43.922;2023-02-13T15:31:04;7.07;;;2.23;;
74892;SDS011;63446;56.272;43.922;2023-02-13T15:33:32;5.40;;;1.85;;
74892;SDS011;63446;56.272;43.922;2023-02-13T15:36:12;8.50;;;2.10;;
74892;SDS011;63446;56.272;43.922;2023-02-13T15:38:42;7.38;;;2.08;;
74892;SDS011;63446;56.272;43.922;2023-02-13T15:41:17;8.83;;;2.43;;
74892;SDS011;63446;56.272;43.922;2023-02-13T15:43:47;8.38;;;2.17;;
74892;SDS011;63446;56.272;43.922;2023-02-13T15:46:26;9.85;;;2.80;;
74892;SDS011;63446;56.272;43.922;2023-02-13T15:48:56;5.67;;;2.20;;
74892;SDS011;63446;56.272;43.922;2023-02-13T15:51:26;7.10;;;2.10;;
74892;SDS011;63446;56.272;43.922;2023-02-13T15:54:06;8.40;;;2.25;;
74892;SDS011;63446;56.272;43.922;2023-02-13T15:56:48;7.40;;;2.30;;
74892;SDS011;63446;56.272;43.922;2023-02-13T15:59:17;7.72;;;2.53;;
74892;SDS011;63446;56.272;43.922;2023-02-13T16:01:44;9.20;;;2.40;;
74892;SDS011;63446;56.272;43.922;2023-02-13T16:04:12;8.57;;;2.67;;
74892;SDS011;63446;56.272;43.922;2023-02-13T16:06:43;8.40;;;2.70;;
74892;SDS011;63446;56.272;43.922;2023-02-13T16:12:02;9.05;;;2.40;;
74892;SDS011;63446;56.272;43.922;2023-02-13T16:14:31;11.93;;;2.70;;
74892;SDS011;63446;56.272;43.922;2023-02-13T16:17:02;8.13;;;2.53;;
74892;SDS011;63446;56.272;43.922;2023-02-13T16:21:56;8.17;;;2.60;;
74892;SDS011;63446;56.272;43.922;2023-02-13T16:24:24;8.60;;;2.50;;
74892;SDS011;63446;56.272;43.922;2023-02-13T16:26:51;6.07;;;2.25;;
74892;SDS011;63446;56.272;43.922;2023-02-13T16:29:20;12.10;;;2.50;;
74892;SDS011;63446;56.272;43.922;2023-02-13T16:31:48;11.57;;;2.90;;
74892;SDS011;63446;56.272;43.922;2023-02-13T16:34:20;10.80;;;2.57;;
74892;SDS011;63446;56.272;43.922;2023-02-13T16:36:50;9.15;;;2.63;;
74892;SDS011;63446;56.272;43.922;2023-02-13T16:39:21;8.70;;;2.88;;
74892;SDS011;63446;56.272;43.922;2023-02-13T16:41:52;8.95;;;2.40;;
74892;SDS011;63446;56.272;43.922;2023-02-13T16:44:26;10.75;;;2.72;;
74892;SDS011;63446;56.272;43.922;2023-02-13T16:49:43;6.70;;;2.17;;
74892;SDS011;63446;56.272;43.922;2023-02-13T16:52:20;11.48;;;3.25;;
74892;SDS011;63446;56.272;43.922;2023-02-13T16:54:53;13.20;;;4.40;;
74892;SDS011;63446;56.272;43.922;2023-02-13T17:04:52;30.38;;;10.40;;
74892;SDS011;63446;56.272;43.922;2023-02-13T17:07:38;12.23;;;4.15;;
74892;SDS011;63446;56.272;43.922;2023-02-13T17:10:19;10.33;;;2.80;;
74892;SDS011;63446;56.272;43.922;2023-02-13T17:12:53;8.52;;;2.65;;
74892;SDS011;63446;56.272;43.922;2023-02-13T17:15:24;12.98;;;3.75;;
74892;SDS011;63446;56.272;43.922;2023-02-13T17:17:52;17.23;;;6.72;;
74892;SDS011;63446;56.272;43.922;2023-02-13T17:20:26;19.13;;;6.75;;
74892;SDS011;63446;56.272;43.922;2023-02-13T17:22:54;16.33;;;5.40;;
74892;SDS011;63446;56.272;43.922;2023-02-13T17:27:49;14.57;;;5.60;;
74892;SDS011;63446;56.272;43.922;2023-02-13T17:30:18;9.13;;;3.38;;
74892;SDS011;63446;56.272;43.922;2023-02-13T17:32:46;11.50;;;3.88;;
74892;SDS011;63446;56.272;43.922;2023-02-13T17:35:14;7.43;;;2.50;;
74892;SDS011;63446;56.272;43.922;2023-02-13T17:37:41;7.38;;;2.08;;
74892;SDS011;63446;56.272;43.922;2023-02-13T17:40:08;8.25;;;2.50;;
74892;SDS011;63446;56.272;43.922;2023-02-13T17:42:42;8.20;;;2.75;;
74892;SDS011;63446;56.272;43.922;2023-02-13T17:45:09;8.93;;;2.60;;
74892;SDS011;63446;56.272;43.922;2023-02-13T17:47:37;7.97;;;2.67;;
74892;SDS011;63446;56.272;43.922;2023-02-13T17:50:03;7.13;;;2.33;;
74892;SDS011;63446;56.272;43.922;2023-02-13T17:52:32;9.65;;;3.13;;
74892;SDS011;63446;56.272;43.922;2023-02-13T17:54:59;10.27;;;3.58;;
74892;SDS011;63446;56.272;43.922;2023-02-13T17:57:24;13.27;;;6.03;;